createdAt,value
2022-08-17T00:01:51.343Z,99832.19
2022-08-17T00:04:23.126Z,99823.94
2022-08-17T00:06:51.307Z,99822.31
2022-08-17T00:09:19.591Z,99821.97
2022-08-17T00:12:40.469Z,99826.69
2022-08-17T00:14:37.998Z,99825.22
2022-08-17T00:17:06.344Z,99828.03
2022-08-17T00:19:35.700Z,99829.13
2022-08-17T00:22:31.113Z,99831.13
2022-08-17T00:24:54.990Z,99842.03
2022-08-17T00:27:23.084Z,99831.06
2022-08-17T00:29:51.861Z,99823.06
2022-08-17T00:33:15.124Z,99831.59
2022-08-17T00:35:12.597Z,99824.53
2022-08-17T00:37:40.641Z,99820.09
2022-08-17T00:40:10.628Z,99826.78
2022-08-17T00:42:39.258Z,99824.78
2022-08-17T00:45:09.683Z,99826.66
2022-08-17T00:47:38.018Z,99816.50
2022-08-17T00:50:07.827Z,99822.66
2022-08-17T00:52:43.136Z,99825.28
2022-08-17T00:55:11.902Z,99818.75
2022-08-17T00:57:43.441Z,99811.28
2022-08-17T01:00:19.542Z,99815.72
2022-08-17T01:02:49.250Z,99815.25
2022-08-17T01:05:19.095Z,99814.22
2022-08-17T01:07:50.695Z,99815.91
2022-08-17T01:11:00.004Z,99817.25
2022-08-17T01:13:12.210Z,99810.81
2022-08-17T01:15:46.169Z,99821.84
2022-08-17T01:18:15.868Z,99817.06
2022-08-17T01:20:48.922Z,99817.59
2022-08-17T01:23:21.238Z,99820.09
2022-08-17T01:25:50.763Z,99817.63
2022-08-17T01:28:52.540Z,99816.47
2022-08-17T01:31:08.914Z,99821.59
2022-08-17T01:33:37.447Z,99827.50
2022-08-17T01:36:07.363Z,99822.31
2022-08-17T01:38:38.284Z,99819.22
2022-08-17T01:41:09.414Z,99827.41
2022-08-17T01:43:44.575Z,99821.59
2022-08-17T01:46:16.853Z,99825.53
2022-08-17T01:48:47.296Z,99825.34
2022-08-17T01:51:16.415Z,99817.13
2022-08-17T01:53:50.560Z,99817.75
2022-08-17T01:56:22.635Z,99820.34
2022-08-17T01:58:51.750Z,99817.44
2022-08-17T02:01:22.765Z,99812.25
2022-08-17T02:03:59.338Z,99814.81
2022-08-17T02:06:31.390Z,99819.72
2022-08-17T02:09:16.916Z,99819.00
2022-08-17T02:11:46.239Z,99813.78
2022-08-17T02:14:14.760Z,99813.47
2022-08-17T02:16:43.669Z,99804.97
2022-08-17T02:19:16.895Z,99814.84
2022-08-17T02:21:47.081Z,99813.91
2022-08-17T02:24:59.780Z,99815.25
2022-08-17T02:27:09.540Z,99812.25
2022-08-17T02:29:38.036Z,99814.94
2022-08-17T02:32:06.751Z,99807.66
2022-08-17T02:34:34.808Z,99821.56
2022-08-17T02:37:02.727Z,99820.03
2022-08-17T02:39:32.161Z,99824.06
2022-08-17T02:42:04.737Z,99833.69
2022-08-17T02:44:39.981Z,99830.91
2022-08-17T02:47:10.189Z,99830.19
2022-08-17T02:49:38.589Z,99839.31
2022-08-17T02:52:08.533Z,99840.66
2022-08-17T02:54:41.583Z,99852.72
2022-08-17T02:57:10.534Z,99841.00
2022-08-17T02:59:38.803Z,99840.25
2022-08-17T03:02:08.184Z,99836.72
2022-08-17T03:04:36.798Z,99844.41
2022-08-17T03:07:05.527Z,99840.66
2022-08-17T03:09:34.032Z,99855.19
2022-08-17T03:12:08.983Z,99840.97
2022-08-17T03:14:41.516Z,99844.25
2022-08-17T03:17:11.150Z,99839.69
2022-08-17T03:19:45.228Z,99842.25
2022-08-17T03:22:36.264Z,99842.66
2022-08-17T03:25:01.213Z,99843.66
2022-08-17T03:27:31.750Z,99843.44
2022-08-17T03:29:59.653Z,99845.28
2022-08-17T03:32:27.939Z,99845.91
2022-08-17T03:34:59.367Z,99838.97
2022-08-17T03:37:27.792Z,99838.84
2022-08-17T03:39:55.820Z,99836.69
2022-08-17T03:42:32.527Z,99831.81
2022-08-17T03:45:03.223Z,99838.06
2022-08-17T03:47:48.820Z,99836.81
2022-08-17T03:50:35.541Z,99828.19
2022-08-17T03:53:23.762Z,99833.09
2022-08-17T03:56:09.334Z,99831.00
2022-08-17T03:58:37.761Z,99834.56
2022-08-17T04:01:07.986Z,99830.09
2022-08-17T04:03:36.036Z,99823.47
2022-08-17T04:06:04.251Z,99822.53
2022-08-17T04:08:32.898Z,99826.47
2022-08-17T04:11:02.093Z,99818.16
2022-08-17T04:13:30.257Z,99825.84
2022-08-17T04:15:59.157Z,99816.88
2022-08-17T04:18:28.577Z,99823.03
2022-08-17T04:20:56.909Z,99814.63
2022-08-17T04:23:32.564Z,99816.38
2022-08-17T04:26:00.826Z,99811.69
2022-08-17T04:28:29.926Z,99811.19
2022-08-17T04:30:58.433Z,99817.03
2022-08-17T04:33:29.447Z,99818.34
2022-08-17T04:35:59.366Z,99818.47
2022-08-17T04:38:29.027Z,99826.25
2022-08-17T04:41:15.379Z,99849.22
2022-08-17T04:43:44.830Z,99866.88
2022-08-17T04:46:14.995Z,99884.63
2022-08-17T04:48:45.919Z,99911.94
2022-08-17T04:51:17.778Z,99936.31
2022-08-17T04:53:53.822Z,99912.81
2022-08-17T04:56:23.418Z,99933.50
2022-08-17T04:58:54.256Z,99940.59
2022-08-17T05:01:24.853Z,99950.03
2022-08-17T05:03:56.445Z,99938.28
2022-08-17T05:06:25.155Z,99954.19
2022-08-17T05:08:53.981Z,99947.94
2022-08-17T05:11:22.436Z,99929.28
2022-08-17T05:13:50.999Z,99948.47
2022-08-17T05:16:20.077Z,99945.84
2022-08-17T05:18:48.253Z,99926.97
2022-08-17T05:21:18.162Z,99927.16
2022-08-17T05:23:53.908Z,99931.53
2022-08-17T05:26:26.297Z,99927.63
2022-08-17T05:29:00.335Z,99929.63
2022-08-17T05:31:31.806Z,99931.81
2022-08-17T05:34:00.118Z,99933.66
2022-08-17T05:36:41.684Z,99915.44
2022-08-17T05:39:15.781Z,99907.88
2022-08-17T05:41:46.464Z,99910.69
2022-08-17T05:44:14.284Z,99901.16
2022-08-17T05:46:46.675Z,99916.56
2022-08-17T05:49:17.102Z,99921.41
2022-08-17T05:52:18.903Z,99928.00
2022-08-17T05:55:04.025Z,99921.09
2022-08-17T05:57:47.512Z,99930.13
2022-08-17T06:00:30.288Z,99939.41
2022-08-17T06:03:20.275Z,99947.53
2022-08-17T06:06:25.297Z,99944.59
2022-08-17T06:09:13.018Z,99955.09
2022-08-17T06:11:47.918Z,99952.66
2022-08-17T06:14:36.547Z,99956.66
2022-08-17T06:17:09.132Z,99954.25
2022-08-17T06:19:41.869Z,99953.44
2022-08-17T06:22:13.531Z,99950.50
2022-08-17T06:24:46.689Z,99944.53
2022-08-17T06:27:24.348Z,99930.75
2022-08-17T06:29:58.647Z,99932.19
2022-08-17T06:32:27.009Z,99923.09
2022-08-17T06:34:55.229Z,99904.09
2022-08-17T06:37:42.090Z,99904.78
2022-08-17T06:40:32.716Z,99919.06
2022-08-17T06:43:17.213Z,99908.34
2022-08-17T06:45:50.034Z,99920.94
2022-08-17T06:48:25.329Z,99923.69
2022-08-17T06:50:59.909Z,99912.56
2022-08-17T06:53:35.784Z,99913.78
2022-08-17T06:56:08.619Z,99919.72
2022-08-17T06:58:40.370Z,99921.09
2022-08-17T07:01:11.562Z,99923.38
2022-08-17T07:03:45.152Z,99918.19
2022-08-17T07:06:16.768Z,99919.66
2022-08-17T07:08:52.427Z,99932.16
2022-08-17T07:11:27.199Z,99924.44
2022-08-17T07:14:06.848Z,99942.81
2022-08-17T07:16:42.057Z,99951.16
2022-08-17T07:19:11.258Z,99951.00
2022-08-17T07:21:50.136Z,99948.75
2022-08-17T07:24:33.117Z,99950.00
2022-08-17T07:27:15.207Z,99940.47
2022-08-17T07:29:53.567Z,99942.44
2022-08-17T07:32:26.332Z,99947.66
2022-08-17T07:35:11.735Z,99951.06
2022-08-17T07:37:41.806Z,99957.88
2022-08-17T07:40:26.360Z,99960.97
2022-08-17T07:43:03.323Z,99960.53
2022-08-17T07:45:53.458Z,99960.59
2022-08-17T07:48:24.294Z,99957.72
2022-08-17T07:50:53.909Z,99969.94
2022-08-17T07:53:25.563Z,99974.72
2022-08-17T07:55:54.569Z,99975.00
2022-08-17T07:58:24.424Z,99976.75
2022-08-17T08:01:10.371Z,99971.41
2022-08-17T08:03:43.503Z,99981.75
2022-08-17T08:06:22.191Z,99994.56
2022-08-17T08:08:53.603Z,99989.28
2022-08-17T08:11:31.097Z,99977.63
2022-08-17T08:14:21.651Z,99980.81
2022-08-17T08:17:01.057Z,99964.06
2022-08-17T08:19:31.074Z,99971.63
2022-08-17T08:22:05.993Z,99978.13
2022-08-17T08:24:52.766Z,99981.47
2022-08-17T08:27:32.719Z,99979.44
2022-08-17T08:30:07.584Z,99979.78
2022-08-17T08:32:57.340Z,99975.00
2022-08-17T08:35:32.347Z,99984.56
2022-08-17T08:38:11.822Z,99991.72
2022-08-17T08:40:55.682Z,99996.88
2022-08-17T08:43:31.773Z,100009.91
2022-08-17T08:46:11.328Z,100017.88
2022-08-17T08:49:10.253Z,100020.56
2022-08-17T08:51:48.629Z,100003.94
2022-08-17T08:54:34.639Z,99990.41
2022-08-17T08:57:29.176Z,99991.28
2022-08-17T09:00:12.752Z,99988.91
2022-08-17T09:03:09.403Z,99996.59
2022-08-17T09:06:01.647Z,99994.50
2022-08-17T09:08:36.511Z,99986.91
2022-08-17T09:11:07.533Z,99981.78
2022-08-17T09:13:46.221Z,99985.97
2022-08-17T09:16:29.875Z,99987.19
2022-08-17T09:19:05.364Z,99990.59
2022-08-17T09:21:47.710Z,99980.34
2022-08-17T09:24:24.790Z,99974.97
2022-08-17T09:26:59.821Z,99968.56
2022-08-17T09:29:35.082Z,99970.53
2022-08-17T09:32:10.643Z,99981.94
2022-08-17T09:34:44.544Z,99986.19
2022-08-17T09:37:23.521Z,99983.59
2022-08-17T09:39:59.152Z,99985.16
2022-08-17T09:42:32.222Z,99986.19
2022-08-17T09:45:22.885Z,100002.84
2022-08-17T09:47:55.832Z,100024.69
2022-08-17T09:50:55.278Z,100006.28
2022-08-17T09:53:20.947Z,100008.34
2022-08-17T09:56:04.052Z,100032.44
2022-08-17T09:58:56.327Z,100030.22
2022-08-17T10:01:31.332Z,100041.13
2022-08-17T10:04:11.716Z,100028.25
2022-08-17T10:06:50.915Z,100022.84
2022-08-17T10:09:23.083Z,100017.75
2022-08-17T10:12:17.086Z,100032.91
2022-08-17T10:14:58.539Z,100044.66
2022-08-17T10:17:44.021Z,100045.94
2022-08-17T10:20:17.301Z,100042.69
2022-08-17T10:23:07.875Z,100060.16
2022-08-17T10:26:02.666Z,100064.34
2022-08-17T10:28:37.415Z,100076.19
2022-08-17T10:31:33.794Z,100058.63
2022-08-17T10:34:07.979Z,100074.63
2022-08-17T10:36:48.227Z,100076.00
2022-08-17T10:39:26.950Z,100061.56
2022-08-17T10:42:00.582Z,100063.16
2022-08-17T10:44:42.322Z,100060.84
2022-08-17T10:47:13.691Z,100088.88
2022-08-17T10:49:49.597Z,100111.19
2022-08-17T10:52:51.962Z,100099.41
2022-08-17T10:55:21.212Z,100089.41
2022-08-17T10:57:54.738Z,100097.09
2022-08-17T11:01:05.679Z,100092.78
2022-08-17T11:03:34.191Z,100086.06
2022-08-17T11:06:15.324Z,100096.53
2022-08-17T11:09:07.942Z,100099.81
2022-08-17T11:12:00.297Z,100085.44
2022-08-17T11:14:49.451Z,100085.34
2022-08-17T11:17:37.414Z,100084.13
2022-08-17T11:20:24.731Z,100092.44
2022-08-17T11:23:23.813Z,100095.31
2022-08-17T11:25:54.459Z,100094.41
2022-08-17T11:28:26.210Z,100087.34
2022-08-17T11:30:58.973Z,100086.22
2022-08-17T11:33:55.932Z,100099.66
2022-08-17T11:36:38.526Z,100095.03
2022-08-17T11:39:23.666Z,100089.47
2022-08-17T11:42:01.799Z,100091.34
2022-08-17T11:44:41.271Z,100097.00
2022-08-17T11:47:36.438Z,100092.78
2022-08-17T11:50:40.641Z,100086.56
2022-08-17T11:53:47.501Z,100097.94
2022-08-17T11:59:41.846Z,100094.56
2022-08-17T12:02:35.259Z,100101.00
2022-08-17T12:05:30.965Z,100095.69
2022-08-17T12:08:21.235Z,100094.44
2022-08-17T12:11:04.330Z,100087.81
2022-08-17T12:13:40.034Z,100073.78
2022-08-17T12:16:09.865Z,100085.56
2022-08-17T12:18:41.859Z,100083.63
2022-08-17T12:21:25.998Z,100079.00
2022-08-17T12:24:00.846Z,100081.03
2022-08-17T12:26:33.348Z,100082.94
2022-08-17T12:29:03.639Z,100074.00
2022-08-17T12:31:37.719Z,100078.69
2022-08-17T12:34:15.699Z,100081.94
2022-08-17T12:36:44.280Z,100081.16
2022-08-17T12:39:14.011Z,100074.88
2022-08-17T12:41:46.706Z,100071.34
2022-08-17T12:44:17.457Z,100079.91
2022-08-17T12:46:56.546Z,100074.66
2022-08-17T12:49:27.929Z,100060.91
2022-08-17T12:52:04.368Z,100052.09
2022-08-17T12:54:40.693Z,100058.97
2022-08-17T12:57:13.996Z,100056.63
2022-08-17T12:59:45.841Z,100054.53
2022-08-17T13:02:23.303Z,100047.53
2022-08-17T13:04:52.819Z,100026.47
2022-08-17T13:07:29.524Z,100032.03
2022-08-17T13:09:57.642Z,100030.69
2022-08-17T13:12:31.797Z,100032.13
2022-08-17T13:15:01.003Z,100023.38
2022-08-17T13:17:31.197Z,100014.38
2022-08-17T13:20:00.610Z,100021.84
2022-08-17T13:22:32.439Z,100022.34
2022-08-17T13:25:05.403Z,100014.16
2022-08-17T13:27:34.358Z,100004.94
2022-08-17T13:30:06.621Z,100004.84
2022-08-17T13:32:44.289Z,99994.53
2022-08-17T13:35:42.906Z,99990.28
2022-08-17T13:38:16.073Z,99989.72
2022-08-17T13:40:50.056Z,99989.38
2022-08-17T13:43:44.562Z,99988.66
2022-08-17T13:46:19.568Z,99985.03
2022-08-17T13:48:58.118Z,99992.75
2022-08-17T13:51:31.217Z,99996.97
2022-08-17T13:54:03.518Z,99990.75
2022-08-17T13:56:39.581Z,99987.97
2022-08-17T13:59:12.236Z,99980.78
2022-08-17T14:01:42.788Z,99986.06
2022-08-17T14:04:12.792Z,99981.78
2022-08-17T14:06:54.174Z,99985.34
2022-08-17T14:09:26.322Z,99981.13
2022-08-17T14:11:56.315Z,99979.81
2022-08-17T14:14:25.190Z,99977.59
2022-08-17T14:16:54.449Z,99982.50
2022-08-17T14:19:22.896Z,99977.91
2022-08-17T14:21:56.391Z,99973.31
2022-08-17T14:24:26.896Z,99967.44
2022-08-17T14:26:55.352Z,99955.44
2022-08-17T14:29:25.804Z,99949.72
2022-08-17T14:31:54.794Z,99946.94
2022-08-17T14:34:22.922Z,99947.72
2022-08-17T14:36:53.053Z,99953.16
2022-08-17T14:39:21.851Z,99941.91
2022-08-17T14:41:50.292Z,99945.50
2022-08-17T14:44:18.281Z,99937.06
2022-08-17T14:46:47.939Z,99939.91
2022-08-17T14:49:17.058Z,99940.38
2022-08-17T14:51:45.091Z,99932.69
2022-08-17T14:54:33.105Z,99922.56
2022-08-17T14:57:23.341Z,99933.53
2022-08-17T14:59:54.714Z,99934.31
2022-08-17T15:02:30.363Z,99921.31
2022-08-17T15:05:03.385Z,99925.31
2022-08-17T15:07:31.838Z,99921.69
2022-08-17T15:10:02.069Z,99926.59
2022-08-17T15:12:33.545Z,99927.44
2022-08-17T15:15:02.102Z,99928.25
2022-08-17T15:17:44.375Z,99933.81
2022-08-17T15:20:24.806Z,99936.09
2022-08-17T15:22:55.040Z,99934.00
2022-08-17T15:25:26.601Z,99925.41
2022-08-17T15:27:55.424Z,99939.75
2022-08-17T15:30:23.908Z,99921.22
2022-08-17T15:32:54.930Z,99920.59
2022-08-17T15:35:27.147Z,99921.44
2022-08-17T15:37:56.030Z,99915.69
2022-08-17T15:40:26.008Z,99924.25
2022-08-17T15:42:54.370Z,99912.84
2022-08-17T15:45:26.463Z,99915.66
2022-08-17T15:47:54.827Z,99915.00
2022-08-17T15:50:23.136Z,99912.91
2022-08-17T15:52:58.155Z,99910.72
2022-08-17T15:55:29.508Z,99901.41
2022-08-17T15:57:57.628Z,99894.97
2022-08-17T16:00:25.988Z,99897.81
2022-08-17T16:03:45.128Z,99895.69
2022-08-17T16:05:42.419Z,99894.25
2022-08-17T16:08:11.144Z,99906.38
2022-08-17T16:10:40.619Z,99907.72
2022-08-17T16:13:17.615Z,99904.16
2022-08-17T16:15:56.594Z,99905.63
2022-08-17T16:18:30.875Z,99899.88
2022-08-17T16:21:19.593Z,99913.41
2022-08-17T16:23:47.722Z,99903.34
2022-08-17T16:26:17.992Z,99911.28
2022-08-17T16:28:46.565Z,99904.84
2022-08-17T16:31:15.609Z,99905.53
2022-08-17T16:34:16.233Z,99911.19
2022-08-17T16:36:32.770Z,99915.50
2022-08-17T16:39:01.443Z,99906.88
2022-08-17T16:41:46.185Z,99907.53
2022-08-17T16:44:15.787Z,99903.88
2022-08-17T16:46:45.516Z,99900.22
2022-08-17T16:49:24.498Z,99889.47
2022-08-17T16:52:03.941Z,99875.25
2022-08-17T16:54:32.526Z,99881.00
2022-08-17T16:57:03.948Z,99881.72
2022-08-17T16:59:40.883Z,99883.09
2022-08-17T17:02:14.807Z,99878.75
2022-08-17T17:04:51.417Z,99885.81
2022-08-17T17:07:41.210Z,99891.47
2022-08-17T17:10:15.120Z,99887.84
2022-08-17T17:13:04.010Z,99893.41
2022-08-17T17:15:48.199Z,99884.03
2022-08-17T17:18:17.037Z,99886.16
2022-08-17T17:20:51.420Z,99881.09
2022-08-17T17:23:35.983Z,99881.63
2022-08-17T17:26:18.627Z,99875.09
2022-08-17T17:29:02.660Z,99877.19
2022-08-17T17:31:38.241Z,99879.19
2022-08-17T17:34:11.249Z,99877.00
2022-08-17T17:36:41.824Z,99876.88
2022-08-17T17:39:14.126Z,99871.81
2022-08-17T17:41:47.600Z,99872.41
2022-08-17T17:44:20.812Z,99870.84
2022-08-17T17:46:52.397Z,99864.28
2022-08-17T17:49:20.578Z,99866.16
2022-08-17T17:52:11.020Z,99862.50
2022-08-17T17:54:53.965Z,99865.91
2022-08-17T17:57:30.813Z,99857.16
2022-08-17T18:00:09.119Z,99861.25
2022-08-17T18:02:56.416Z,99861.06
2022-08-17T18:05:40.340Z,99859.47
2022-08-17T18:08:19.037Z,99854.34
2022-08-17T18:10:54.715Z,99857.75
2022-08-17T18:13:33.130Z,99857.50
2022-08-17T18:16:04.747Z,99867.19
2022-08-17T18:18:40.751Z,99848.50
2022-08-17T18:21:15.694Z,99842.66
2022-08-17T18:23:48.118Z,99850.25
2022-08-17T18:26:36.476Z,99847.81
2022-08-17T18:29:23.327Z,99843.34
2022-08-17T18:32:13.549Z,99852.97
2022-08-17T18:34:47.682Z,99856.94
2022-08-17T18:37:42.598Z,99855.72
2022-08-17T18:40:27.826Z,99855.97
2022-08-17T18:43:23.364Z,99849.91
2022-08-17T18:45:54.566Z,99857.06
2022-08-17T18:48:29.148Z,99858.91
2022-08-17T18:51:01.902Z,99871.47
2022-08-17T18:53:38.181Z,99869.81
2022-08-17T18:56:26.758Z,99879.44
2022-08-17T18:59:03.470Z,99881.25
2022-08-17T19:01:53.486Z,99891.75
2022-08-17T19:04:37.042Z,99893.69
2022-08-17T19:07:09.913Z,99895.16
2022-08-17T19:09:43.536Z,99899.84
2022-08-17T19:12:27.150Z,99899.13
2022-08-17T19:14:57.546Z,99907.28
2022-08-17T19:17:38.928Z,99912.78
2022-08-17T19:20:15.372Z,99918.94
2022-08-17T19:22:53.579Z,99925.81
2022-08-17T19:25:27.269Z,99925.53
2022-08-17T19:28:03.220Z,99918.94
2022-08-17T19:30:32.047Z,99920.81
2022-08-17T19:33:02.291Z,99930.44
2022-08-17T19:35:43.471Z,99918.16
2022-08-17T19:38:26.506Z,99925.00
2022-08-17T19:41:06.438Z,99927.66
2022-08-17T19:43:58.087Z,99923.31
2022-08-17T19:47:00.753Z,99914.66
2022-08-17T19:49:41.152Z,99916.53
2022-08-17T19:52:36.264Z,99916.22
2022-08-17T19:55:10.147Z,99908.84
2022-08-17T19:57:48.675Z,99916.59
2022-08-17T20:00:18.823Z,99922.69
2022-08-17T20:02:58.684Z,99919.53
2022-08-17T20:05:30.190Z,99923.44
2022-08-17T20:08:05.359Z,99909.84
2022-08-17T20:10:45.201Z,99927.81
2022-08-17T20:13:33.217Z,99933.19
2022-08-17T20:16:02.647Z,99921.59
2022-08-17T20:18:37.709Z,99922.75
2022-08-17T20:21:20.436Z,99916.97
2022-08-17T20:23:55.165Z,99915.22
2022-08-17T20:26:27.245Z,99922.72
2022-08-17T20:29:39.779Z,99928.81
2022-08-17T20:32:22.383Z,99929.88
2022-08-17T20:35:04.186Z,99922.47
2022-08-17T20:37:35.096Z,99920.69
2022-08-17T20:40:20.472Z,99931.03
2022-08-17T20:42:48.673Z,99914.69
2022-08-17T20:45:59.408Z,99921.44
2022-08-17T20:48:39.143Z,99916.94
2022-08-17T20:51:18.889Z,99914.63
2022-08-17T20:54:34.040Z,99908.50
2022-08-17T20:57:13.770Z,99913.50
2022-08-17T21:00:13.691Z,99918.97
2022-08-17T21:02:44.300Z,99931.38
2022-08-17T21:05:57.374Z,99936.78
2022-08-17T21:08:31.668Z,99942.19
2022-08-17T21:11:01.691Z,99941.03
2022-08-17T21:14:05.012Z,99937.84
2022-08-17T21:16:45.646Z,99930.66
2022-08-17T21:19:30.957Z,99936.78
2022-08-17T21:22:12.861Z,99930.34
2022-08-17T21:24:53.451Z,99929.97
2022-08-17T21:27:35.730Z,99939.78
2022-08-17T21:30:40.180Z,99933.25
2022-08-17T21:33:23.676Z,99949.78
2022-08-17T21:35:54.134Z,99949.78
2022-08-17T21:38:35.813Z,99948.16
2022-08-17T21:41:03.933Z,99956.56
2022-08-17T21:43:35.300Z,99969.25
2022-08-17T21:46:09.298Z,99965.16
2022-08-17T21:48:43.881Z,99973.06
2022-08-17T21:51:19.016Z,99969.97
2022-08-17T21:53:51.956Z,99968.94
2022-08-17T21:56:26.297Z,99970.19
2022-08-17T21:58:58.953Z,99974.56
2022-08-17T22:01:31.543Z,99973.81
2022-08-17T22:04:05.739Z,99971.00
2022-08-17T22:06:39.011Z,99968.84
2022-08-17T22:09:17.192Z,99975.84
2022-08-17T22:11:59.281Z,99970.75
2022-08-17T22:14:53.003Z,99962.53
2022-08-17T22:17:23.696Z,99974.25
2022-08-17T22:19:54.538Z,99976.38
2022-08-17T22:22:55.703Z,99975.38
2022-08-17T22:25:24.727Z,99978.66
2022-08-17T22:27:56.520Z,99978.66
2022-08-17T22:30:32.139Z,99982.81
2022-08-17T22:33:03.343Z,99995.50
2022-08-17T22:35:34.957Z,99988.97
2022-08-17T22:38:32.152Z,99994.28
2022-08-17T22:41:40.791Z,99996.56
2022-08-17T22:44:17.191Z,99992.47
2022-08-17T22:47:00.829Z,100004.84
2022-08-17T22:49:36.512Z,100008.22
2022-08-17T22:52:19.372Z,100010.28
2022-08-17T22:55:09.421Z,100011.75
2022-08-17T22:57:52.066Z,100013.19
2022-08-17T23:00:33.410Z,100014.66
2022-08-17T23:03:12.026Z,100017.19
2022-08-17T23:05:44.854Z,100022.34
2022-08-17T23:08:13.555Z,100017.34
2022-08-17T23:10:42.671Z,100026.25
2022-08-17T23:13:12.148Z,100023.34
2022-08-17T23:15:41.584Z,100023.91
2022-08-17T23:18:09.635Z,100021.00
2022-08-17T23:20:40.044Z,100016.09
2022-08-17T23:23:11.190Z,100026.97
2022-08-17T23:25:39.629Z,100032.41
2022-08-17T23:28:08.253Z,100035.88
2022-08-17T23:30:42.074Z,100039.31
2022-08-17T23:33:18.115Z,100044.25
2022-08-17T23:35:46.256Z,100056.88
2022-08-17T23:38:15.695Z,100072.38
2022-08-17T23:40:43.689Z,100090.09
2022-08-17T23:43:24.801Z,100096.47
2022-08-17T23:45:54.966Z,100093.56
2022-08-17T23:48:32.703Z,100096.28
2022-08-17T23:51:07.230Z,100100.47
2022-08-17T23:53:37.709Z,100110.81
2022-08-17T23:56:09.508Z,100110.72
2022-08-17T23:58:39.084Z,100104.91
